Terminal Aerodrome Forecast
Issued by NWS Cleveland, OH

Home | Current Version | Previous Version | Text Only | Print | Product List | Glossary Off
Versions: 1 2 3 4 5 6 7 8 9 10 11 12 13 14 15 16 17 18 19 20 21 22 23 24 25 26 27 28 29 30 31 32 33 34 35

000
FTUS41 KCLE 202330
TAFCLE
TAF
KCLE 202330Z 2100/2206 01005KT P6SM FEW080 BKN150
     FM210500 VRB03KT P6SM BKN080
     FM211700 04006KT P6SM BKN050
     FM212300 06004KT P6SM VCTS OVC050CB
     FM220200 12004KT P6SM BKN045=

USA.gov is the U.S. government's official web portal to all federal, state and local government web resources and services.